sensor_id;sensor_type;location;lat;lon;timestamp;pressure;altitude;pressure_sealevel;temperature;humidity
8334;BME280;4204;43.004;23.052;2024-01-10T00:00:48;94813.13;;;-5.35;52.79
8334;BME280;4204;43.004;23.052;2024-01-10T00:03:13;94806.72;;;-5.40;50.32
8334;BME280;4204;43.004;23.052;2024-01-10T00:05:38;94811.69;;;-5.39;50.01
8334;BME280;4204;43.004;23.052;2024-01-10T00:08:04;94814.09;;;-5.37;51.58
8334;BME280;4204;43.004;23.052;2024-01-10T00:10:29;94809.88;;;-5.37;50.93
8334;BME280;4204;43.004;23.052;2024-01-10T00:12:55;94814.09;;;-5.37;48.25
8334;BME280;4204;43.004;23.052;2024-01-10T00:15:20;94812.81;;;-5.45;48.16
8334;BME280;4204;43.004;23.052;2024-01-10T00:17:46;94810.31;;;-5.45;48.28
8334;BME280;4204;43.004;23.052;2024-01-10T00:20:11;94817.19;;;-5.32;53.96
8334;BME280;4204;43.004;23.052;2024-01-10T00:22:37;94814.97;;;-5.23;50.06
8334;BME280;4204;43.004;23.052;2024-01-10T00:25:03;94818.63;;;-5.13;50.79
8334;BME280;4204;43.004;23.052;2024-01-10T00:27:29;94819.09;;;-5.06;49.21
8334;BME280;4204;43.004;23.052;2024-01-10T00:29:55;94813.63;;;-4.98;49.04
8334;BME280;4204;43.004;23.052;2024-01-10T00:32:22;94824.97;;;-4.91;50.25
8334;BME280;4204;43.004;23.052;2024-01-10T00:34:47;94823.56;;;-4.81;48.77
8334;BME280;4204;43.004;23.052;2024-01-10T00:37:12;94826.78;;;-4.79;48.90
8334;BME280;4204;43.004;23.052;2024-01-10T00:39:38;94820.59;;;-4.73;49.01
8334;BME280;4204;43.004;23.052;2024-01-10T00:42:03;94828.88;;;-4.71;50.13
8334;BME280;4204;43.004;23.052;2024-01-10T00:44:29;94822.84;;;-4.69;48.65
8334;BME280;4204;43.004;23.052;2024-01-10T00:46:54;94827.88;;;-4.69;52.82
8334;BME280;4204;43.004;23.052;2024-01-10T00:49:19;94835.81;;;-4.61;50.13
8334;BME280;4204;43.004;23.052;2024-01-10T00:51:46;94830.78;;;-4.61;49.07
8334;BME280;4204;43.004;23.052;2024-01-10T00:54:11;94831.16;;;-4.53;49.29
8334;BME280;4204;43.004;23.052;2024-01-10T00:56:36;94829.94;;;-4.45;50.52
8334;BME280;4204;43.004;23.052;2024-01-10T00:59:02;94822.91;;;-4.40;51.30
8334;BME280;4204;43.004;23.052;2024-01-10T01:01:27;94828.84;;;-4.41;51.00
8334;BME280;4204;43.004;23.052;2024-01-10T01:03:53;94811.22;;;-4.41;50.70
8334;BME280;4204;43.004;23.052;2024-01-10T01:06:18;94826.34;;;-4.27;50.72
8334;BME280;4204;43.004;23.052;2024-01-10T01:08:43;94822.56;;;-4.34;51.07
8334;BME280;4204;43.004;23.052;2024-01-10T01:11:09;94813.56;;;-4.38;51.25
8334;BME280;4204;43.004;23.052;2024-01-10T01:13:35;94823.53;;;-4.37;51.62
8334;BME280;4204;43.004;23.052;2024-01-10T01:16:00;94816.81;;;-4.36;51.90
8334;BME280;4204;43.004;23.052;2024-01-10T01:18:25;94818.06;;;-4.43;51.08
8334;BME280;4204;43.004;23.052;2024-01-10T01:20:51;94820.53;;;-4.58;50.81
8334;BME280;4204;43.004;23.052;2024-01-10T01:23:16;94811.91;;;-4.54;52.00
8334;BME280;4204;43.004;23.052;2024-01-10T01:25:42;94815.97;;;-4.51;51.91
8334;BME280;4204;43.004;23.052;2024-01-10T01:28:08;94809.50;;;-4.55;50.43
8334;BME280;4204;43.004;23.052;2024-01-10T01:30:33;94808.50;;;-4.67;52.33
8334;BME280;4204;43.004;23.052;2024-01-10T01:32:59;94811.19;;;-4.70;50.65
8334;BME280;4204;43.004;23.052;2024-01-10T01:35:24;94809.81;;;-4.75;48.61
8334;BME280;4204;43.004;23.052;2024-01-10T01:37:50;94808.47;;;-4.81;48.23
8334;BME280;4204;43.004;23.052;2024-01-10T01:40:15;94808.38;;;-4.80;51.35
8334;BME280;4204;43.004;23.052;2024-01-10T01:42:40;94818.44;;;-4.80;51.58
8334;BME280;4204;43.004;23.052;2024-01-10T01:45:06;94822.56;;;-4.78;49.60
8334;BME280;4204;43.004;23.052;2024-01-10T01:47:32;94813.50;;;-4.81;51.59
8334;BME280;4204;43.004;23.052;2024-01-10T01:49:57;94815.47;;;-4.86;52.36
8334;BME280;4204;43.004;23.052;2024-01-10T01:52:23;94805.84;;;-4.94;50.83
8334;BME280;4204;43.004;23.052;2024-01-10T01:54:49;94821.38;;;-4.87;49.87
8334;BME280;4204;43.004;23.052;2024-01-10T01:57:15;94815.63;;;-4.89;50.25
8334;BME280;4204;43.004;23.052;2024-01-10T01:59:40;94793.53;;;-4.98;49.88
8334;BME280;4204;43.004;23.052;2024-01-10T02:02:07;94802.50;;;-4.94;52.61
8334;BME280;4204;43.004;23.052;2024-01-10T02:04:32;94804.75;;;-4.90;52.10
8334;BME280;4204;43.004;23.052;2024-01-10T02:06:59;94807.19;;;-4.88;50.95
8334;BME280;4204;43.004;23.052;2024-01-10T02:09:24;94798.66;;;-4.86;51.64
8334;BME280;4204;43.004;23.052;2024-01-10T02:11:50;94801.72;;;-4.81;52.87
8334;BME280;4204;43.004;23.052;2024-01-10T02:14:15;94801.81;;;-4.82;53.36
8334;BME280;4204;43.004;23.052;2024-01-10T02:16:41;94799.56;;;-4.87;53.11
8334;BME280;4204;43.004;23.052;2024-01-10T02:19:23;94791.56;;;-4.93;54.67
8334;BME280;4204;43.004;23.052;2024-01-10T02:21:49;94801.19;;;-4.86;54.38
8334;BME280;4204;43.004;23.052;2024-01-10T02:24:14;94793.19;;;-4.92;54.30
8334;BME280;4204;43.004;23.052;2024-01-10T02:26:40;94789.00;;;-5.07;55.16
8334;BME280;4204;43.004;23.052;2024-01-10T02:29:06;94794.94;;;-5.08;56.71
8334;BME280;4204;43.004;23.052;2024-01-10T02:31:31;94798.28;;;-5.24;57.39
8334;BME280;4204;43.004;23.052;2024-01-10T02:33:56;94796.75;;;-5.26;56.74
8334;BME280;4204;43.004;23.052;2024-01-10T02:36:22;94792.13;;;-5.34;57.87
8334;BME280;4204;43.004;23.052;2024-01-10T02:38:47;94791.56;;;-5.39;57.78
8334;BME280;4204;43.004;23.052;2024-01-10T02:41:13;94802.78;;;-5.45;58.47
8334;BME280;4204;43.004;23.052;2024-01-10T02:43:39;94797.84;;;-5.46;58.17
8334;BME280;4204;43.004;23.052;2024-01-10T02:46:04;94791.28;;;-5.49;59.14
8334;BME280;4204;43.004;23.052;2024-01-10T02:48:30;94792.16;;;-5.50;58.44
8334;BME280;4204;43.004;23.052;2024-01-10T02:50:55;94791.94;;;-5.61;57.55
8334;BME280;4204;43.004;23.052;2024-01-10T02:53:21;94789.03;;;-5.69;58.04
8334;BME280;4204;43.004;23.052;2024-01-10T02:55:46;94791.00;;;-5.90;59.44
8334;BME280;4204;43.004;23.052;2024-01-10T02:58:13;94802.97;;;-5.95;60.22
8334;BME280;4204;43.004;23.052;2024-01-10T03:00:41;94791.47;;;-6.15;59.48
8334;BME280;4204;43.004;23.052;2024-01-10T03:03:06;94796.47;;;-6.30;60.82
8334;BME280;4204;43.004;23.052;2024-01-10T03:05:32;94791.25;;;-6.43;60.45
8334;BME280;4204;43.004;23.052;2024-01-10T03:07:57;94781.19;;;-6.59;61.18
8334;BME280;4204;43.004;23.052;2024-01-10T03:10:23;94805.97;;;-6.70;62.36
8334;BME280;4204;43.004;23.052;2024-01-10T03:12:48;94796.53;;;-6.65;62.18
8334;BME280;4204;43.004;23.052;2024-01-10T03:15:14;94803.84;;;-6.60;63.24
8334;BME280;4204;43.004;23.052;2024-01-10T03:17:39;94811.66;;;-6.84;62.29
8334;BME280;4204;43.004;23.052;2024-01-10T03:20:05;94801.47;;;-6.81;62.44
8334;BME280;4204;43.004;23.052;2024-01-10T03:22:31;94810.31;;;-6.74;63.10
8334;BME280;4204;43.004;23.052;2024-01-10T03:24:57;94812.09;;;-6.76;62.79
8334;BME280;4204;43.004;23.052;2024-01-10T03:27:22;94809.59;;;-6.93;63.22
8334;BME280;4204;43.004;23.052;2024-01-10T03:29:48;94805.78;;;-7.00;63.01
8334;BME280;4204;43.004;23.052;2024-01-10T03:32:13;94793.91;;;-7.14;63.11
8334;BME280;4204;43.004;23.052;2024-01-10T03:34:41;94813.59;;;-7.06;64.21
8334;BME280;4204;43.004;23.052;2024-01-10T03:37:06;94806.59;;;-7.17;64.50
8334;BME280;4204;43.004;23.052;2024-01-10T03:39:32;94811.72;;;-7.37;63.59
8334;BME280;4204;43.004;23.052;2024-01-10T03:41:57;94811.31;;;-7.47;64.53
8334;BME280;4204;43.004;23.052;2024-01-10T03:44:23;94816.53;;;-7.51;65.13
8334;BME280;4204;43.004;23.052;2024-01-10T03:46:48;94815.66;;;-7.50;64.64
8334;BME280;4204;43.004;23.052;2024-01-10T03:49:13;94825.34;;;-7.61;64.75
8334;BME280;4204;43.004;23.052;2024-01-10T03:51:39;94831.38;;;-7.65;65.80
8334;BME280;4204;43.004;23.052;2024-01-10T03:54:05;94834.03;;;-7.69;64.58
8334;BME280;4204;43.004;23.052;2024-01-10T03:56:31;94831.22;;;-7.98;66.04
8334;BME280;4204;43.004;23.052;2024-01-10T03:58:56;94833.66;;;-7.97;66.61
8334;BME280;4204;43.004;23.052;2024-01-10T04:01:22;94828.63;;;-7.97;66.59
8334;BME280;4204;43.004;23.052;2024-01-10T04:03:48;94831.00;;;-7.94;66.98
8334;BME280;4204;43.004;23.052;2024-01-10T04:06:14;94832.34;;;-8.06;66.07
8334;BME280;4204;43.004;23.052;2024-01-10T04:08:39;94832.22;;;-8.03;67.02
8334;BME280;4204;43.004;23.052;2024-01-10T04:11:05;94831.69;;;-8.09;67.58
8334;BME280;4204;43.004;23.052;2024-01-10T04:13:30;94828.41;;;-8.30;67.50
8334;BME280;4204;43.004;23.052;2024-01-10T04:15:55;94823.22;;;-8.44;67.75
8334;BME280;4204;43.004;23.052;2024-01-10T04:18:21;94825.97;;;-8.50;68.07
8334;BME280;4204;43.004;23.052;2024-01-10T04:20:48;94826.63;;;-8.66;67.83
8334;BME280;4204;43.004;23.052;2024-01-10T04:23:14;94827.84;;;-8.55;67.85
8334;BME280;4204;43.004;23.052;2024-01-10T04:25:39;94831.78;;;-8.50;67.18
8334;BME280;4204;43.004;23.052;2024-01-10T04:28:05;94830.28;;;-8.54;67.64
8334;BME280;4204;43.004;23.052;2024-01-10T04:30:31;94824.19;;;-8.67;68.13
8334;BME280;4204;43.004;23.052;2024-01-10T04:32:56;94839.94;;;-8.65;68.69
8334;BME280;4204;43.004;23.052;2024-01-10T04:35:22;94842.28;;;-8.62;68.81
8334;BME280;4204;43.004;23.052;2024-01-10T04:37:47;94839.88;;;-8.63;68.57
8334;BME280;4204;43.004;23.052;2024-01-10T04:40:12;94845.53;;;-8.60;68.93
8334;BME280;4204;43.004;23.052;2024-01-10T04:42:38;94843.03;;;-8.60;69.26
8334;BME280;4204;43.004;23.052;2024-01-10T04:45:04;94847.09;;;-8.57;69.72
8334;BME280;4204;43.004;23.052;2024-01-10T04:47:29;94851.97;;;-8.54;68.53
8334;BME280;4204;43.004;23.052;2024-01-10T04:49:55;94862.16;;;-8.59;68.89
8334;BME280;4204;43.004;23.052;2024-01-10T04:52:20;94860.84;;;-8.68;69.76
8334;BME280;4204;43.004;23.052;2024-01-10T04:54:46;94868.16;;;-8.63;69.29
8334;BME280;4204;43.004;23.052;2024-01-10T04:57:11;94864.78;;;-8.62;69.69
8334;BME280;4204;43.004;23.052;2024-01-10T04:59:36;94867.72;;;-8.52;69.40
8334;BME280;4204;43.004;23.052;2024-01-10T05:02:02;94871.22;;;-8.56;68.33
8334;BME280;4204;43.004;23.052;2024-01-10T05:04:27;94857.78;;;-8.54;68.96
8334;BME280;4204;43.004;23.052;2024-01-10T05:06:53;94872.78;;;-8.74;68.67
8334;BME280;4204;43.004;23.052;2024-01-10T05:09:18;94868.78;;;-8.78;69.17
8334;BME280;4204;43.004;23.052;2024-01-10T05:11:44;94874.59;;;-8.78;69.46
8334;BME280;4204;43.004;23.052;2024-01-10T05:14:12;94861.72;;;-8.89;69.17
8334;BME280;4204;43.004;23.052;2024-01-10T05:16:38;94867.53;;;-8.88;68.43
8334;BME280;4204;43.004;23.052;2024-01-10T05:19:03;94874.34;;;-9.14;69.10
8334;BME280;4204;43.004;23.052;2024-01-10T05:21:32;94877.16;;;-9.21;70.19
8334;BME280;4204;43.004;23.052;2024-01-10T05:23:57;94875.53;;;-9.22;70.66
8334;BME280;4204;43.004;23.052;2024-01-10T05:26:23;94873.03;;;-9.22;69.28
8334;BME280;4204;43.004;23.052;2024-01-10T05:28:48;94878.31;;;-9.30;70.42
8334;BME280;4204;43.004;23.052;2024-01-10T05:31:14;94877.00;;;-9.39;69.91
8334;BME280;4204;43.004;23.052;2024-01-10T05:33:39;94885.53;;;-9.44;70.04
8334;BME280;4204;43.004;23.052;2024-01-10T05:36:05;94879.03;;;-9.48;70.45
8334;BME280;4204;43.004;23.052;2024-01-10T05:38:30;94885.59;;;-9.46;70.22
8334;BME280;4204;43.004;23.052;2024-01-10T05:40:56;94884.72;;;-9.45;70.56
8334;BME280;4204;43.004;23.052;2024-01-10T05:43:21;94896.31;;;-9.44;71.04
8334;BME280;4204;43.004;23.052;2024-01-10T05:45:47;94887.63;;;-9.55;71.65
8334;BME280;4204;43.004;23.052;2024-01-10T05:48:12;94895.84;;;-9.53;71.22
8334;BME280;4204;43.004;23.052;2024-01-10T05:50:37;94887.38;;;-9.49;71.25
8334;BME280;4204;43.004;23.052;2024-01-10T05:53:04;94893.41;;;-9.55;72.18
8334;BME280;4204;43.004;23.052;2024-01-10T05:55:29;94899.22;;;-9.54;71.69
8334;BME280;4204;43.004;23.052;2024-01-10T05:57:55;94891.34;;;-9.44;71.86
8334;BME280;4204;43.004;23.052;2024-01-10T06:00:20;94892.59;;;-9.34;71.15
8334;BME280;4204;43.004;23.052;2024-01-10T06:02:46;94897.78;;;-9.38;70.78
8334;BME280;4204;43.004;23.052;2024-01-10T06:05:12;94889.88;;;-9.27;70.66
8334;BME280;4204;43.004;23.052;2024-01-10T06:07:38;94902.59;;;-9.34;71.08
8334;BME280;4204;43.004;23.052;2024-01-10T06:10:05;94904.75;;;-9.46;70.21
8334;BME280;4204;43.004;23.052;2024-01-10T06:12:31;94906.06;;;-9.38;70.02
8334;BME280;4204;43.004;23.052;2024-01-10T06:14:56;94908.50;;;-9.36;70.80
8334;BME280;4204;43.004;23.052;2024-01-10T06:17:22;94904.63;;;-9.43;71.02
8334;BME280;4204;43.004;23.052;2024-01-10T06:19:48;94907.06;;;-9.42;70.82
8334;BME280;4204;43.004;23.052;2024-01-10T06:22:13;94907.94;;;-9.43;70.96
8334;BME280;4204;43.004;23.052;2024-01-10T06:24:39;94910.13;;;-9.35;70.55
8334;BME280;4204;43.004;23.052;2024-01-10T06:27:06;94920.75;;;-9.30;70.95
8334;BME280;4204;43.004;23.052;2024-01-10T06:29:31;94920.00;;;-9.32;70.64
8334;BME280;4204;43.004;23.052;2024-01-10T06:31:58;94927.44;;;-9.31;70.33
8334;BME280;4204;43.004;23.052;2024-01-10T06:34:24;94927.31;;;-9.27;70.86
8334;BME280;4204;43.004;23.052;2024-01-10T06:36:49;94923.03;;;-9.46;70.71
8334;BME280;4204;43.004;23.052;2024-01-10T06:39:15;94931.66;;;-9.54;70.96
8334;BME280;4204;43.004;23.052;2024-01-10T06:41:41;94930.56;;;-9.47;71.14
8334;BME280;4204;43.004;23.052;2024-01-10T06:44:08;94932.06;;;-9.43;71.11
8334;BME280;4204;43.004;23.052;2024-01-10T06:46:34;94938.47;;;-9.36;71.68
8334;BME280;4204;43.004;23.052;2024-01-10T06:48:59;94926.78;;;-9.36;72.07
8334;BME280;4204;43.004;23.052;2024-01-10T06:51:25;94942.81;;;-9.41;72.01
8334;BME280;4204;43.004;23.052;2024-01-10T06:53:52;94943.34;;;-9.33;71.98
8334;BME280;4204;43.004;23.052;2024-01-10T06:56:17;94947.63;;;-9.37;71.60
8334;BME280;4204;43.004;23.052;2024-01-10T06:58:43;94952.97;;;-9.24;71.89
8334;BME280;4204;43.004;23.052;2024-01-10T07:01:12;94926.50;;;-9.28;72.08
8334;BME280;4204;43.004;23.052;2024-01-10T07:03:39;94952.88;;;-9.21;72.21
8334;BME280;4204;43.004;23.052;2024-01-10T07:06:05;94947.69;;;-9.16;71.73
8334;BME280;4204;43.004;23.052;2024-01-10T07:08:30;94944.03;;;-9.08;72.48
8334;BME280;4204;43.004;23.052;2024-01-10T07:10:56;94944.84;;;-8.85;72.37
8334;BME280;4204;43.004;23.052;2024-01-10T07:13:22;94949.94;;;-8.67;71.64
8334;BME280;4204;43.004;23.052;2024-01-10T07:15:48;94947.13;;;-8.59;71.95
8334;BME280;4204;43.004;23.052;2024-01-10T07:18:16;94939.00;;;-8.44;71.80
8334;BME280;4204;43.004;23.052;2024-01-10T07:20:41;94942.75;;;-8.34;71.65
8334;BME280;4204;43.004;23.052;2024-01-10T07:23:07;94943.41;;;-8.30;71.84
8334;BME280;4204;43.004;23.052;2024-01-10T07:25:32;94941.28;;;-8.19;71.94
8334;BME280;4204;43.004;23.052;2024-01-10T07:27:59;94944.03;;;-8.05;71.38
8334;BME280;4204;43.004;23.052;2024-01-10T07:30:24;94946.34;;;-8.00;71.18
8334;BME280;4204;43.004;23.052;2024-01-10T07:32:50;94947.97;;;-7.99;71.11
8334;BME280;4204;43.004;23.052;2024-01-10T07:35:15;94949.22;;;-7.89;72.12
8334;BME280;4204;43.004;23.052;2024-01-10T07:37:41;94947.13;;;-7.79;71.16
8334;BME280;4204;43.004;23.052;2024-01-10T07:40:10;94952.28;;;-7.63;71.60
8334;BME280;4204;43.004;23.052;2024-01-10T07:42:36;94945.16;;;-7.54;71.05
8334;BME280;4204;43.004;23.052;2024-01-10T07:45:03;94945.47;;;-7.41;70.39
8334;BME280;4204;43.004;23.052;2024-01-10T07:47:34;94948.03;;;-7.24;70.01
8334;BME280;4204;43.004;23.052;2024-01-10T07:50:11;94955.72;;;-7.10;68.88
8334;BME280;4204;43.004;23.052;2024-01-10T07:52:39;94953.97;;;-7.08;67.90
8334;BME280;4204;43.004;23.052;2024-01-10T07:55:06;94951.78;;;-6.96;67.84
8334;BME280;4204;43.004;23.052;2024-01-10T07:57:35;94953.56;;;-6.81;66.63
8334;BME280;4204;43.004;23.052;2024-01-10T08:00:03;94959.78;;;-6.71;64.82
8334;BME280;4204;43.004;23.052;2024-01-10T08:02:29;94963.50;;;-6.61;65.23
8334;BME280;4204;43.004;23.052;2024-01-10T08:05:04;94956.50;;;-6.54;65.51
8334;BME280;4204;43.004;23.052;2024-01-10T08:07:31;94951.78;;;-6.43;63.51
8334;BME280;4204;43.004;23.052;2024-01-10T08:10:01;94956.28;;;-6.32;62.79
8334;BME280;4204;43.004;23.052;2024-01-10T08:12:27;94958.31;;;-6.23;63.92
8334;BME280;4204;43.004;23.052;2024-01-10T08:14:53;94963.94;;;-6.18;61.82
8334;BME280;4204;43.004;23.052;2024-01-10T08:17:18;94966.72;;;-6.07;61.64
8334;BME280;4204;43.004;23.052;2024-01-10T08:19:45;94965.69;;;-6.03;60.64
8334;BME280;4204;43.004;23.052;2024-01-10T08:22:10;94972.84;;;-5.95;60.32
8334;BME280;4204;43.004;23.052;2024-01-10T08:24:35;94971.50;;;-5.85;60.80
8334;BME280;4204;43.004;23.052;2024-01-10T08:27:01;94979.22;;;-5.72;60.58
8334;BME280;4204;43.004;23.052;2024-01-10T08:29:26;94986.19;;;-5.62;60.24
8334;BME280;4204;43.004;23.052;2024-01-10T08:31:56;94978.50;;;-5.59;60.39
8334;BME280;4204;43.004;23.052;2024-01-10T08:34:22;94980.41;;;-5.47;59.35
8334;BME280;4204;43.004;23.052;2024-01-10T08:36:48;94979.03;;;-5.36;58.31
8334;BME280;4204;43.004;23.052;2024-01-10T08:39:16;94981.53;;;-5.36;58.77
8334;BME280;4204;43.004;23.052;2024-01-10T08:41:42;94979.69;;;-5.33;57.14
8334;BME280;4204;43.004;23.052;2024-01-10T08:44:10;94979.69;;;-5.33;57.35
8334;BME280;4204;43.004;23.052;2024-01-10T08:46:35;94967.59;;;-5.26;58.17
8334;BME280;4204;43.004;23.052;2024-01-10T08:49:01;94979.63;;;-5.16;59.77
8334;BME280;4204;43.004;23.052;2024-01-10T08:51:26;94981.25;;;-5.15;58.81
8334;BME280;4204;43.004;23.052;2024-01-10T08:53:52;94982.06;;;-5.14;58.54
8334;BME280;4204;43.004;23.052;2024-01-10T08:56:18;94965.28;;;-5.14;59.90
8334;BME280;4204;43.004;23.052;2024-01-10T08:58:45;94981.66;;;-5.06;58.12
8334;BME280;4204;43.004;23.052;2024-01-10T09:01:10;94962.63;;;-5.10;60.47
8334;BME280;4204;43.004;23.052;2024-01-10T09:03:36;94966.44;;;-5.03;59.62
8334;BME280;4204;43.004;23.052;2024-01-10T09:06:03;94960.91;;;-4.94;59.20
8334;BME280;4204;43.004;23.052;2024-01-10T09:08:29;94952.13;;;-4.87;58.83
8334;BME280;4204;43.004;23.052;2024-01-10T09:10:55;94945.56;;;-4.90;56.81
8334;BME280;4204;43.004;23.052;2024-01-10T09:13:20;94948.56;;;-4.83;58.14
8334;BME280;4204;43.004;23.052;2024-01-10T09:15:46;94941.50;;;-4.76;58.77
8334;BME280;4204;43.004;23.052;2024-01-10T09:18:11;94944.22;;;-4.65;59.31
8334;BME280;4204;43.004;23.052;2024-01-10T09:20:37;94951.34;;;-4.58;57.43
8334;BME280;4204;43.004;23.052;2024-01-10T09:23:03;94944.94;;;-4.63;55.86
8334;BME280;4204;43.004;23.052;2024-01-10T09:25:28;94942.19;;;-4.59;55.86
8334;BME280;4204;43.004;23.052;2024-01-10T09:27:55;94941.75;;;-4.51;55.89
8334;BME280;4204;43.004;23.052;2024-01-10T09:30:20;94939.78;;;-4.46;56.29
8334;BME280;4204;43.004;23.052;2024-01-10T09:32:46;94939.41;;;-4.54;53.57
8334;BME280;4204;43.004;23.052;2024-01-10T09:35:12;94934.72;;;-4.44;54.77
8334;BME280;4204;43.004;23.052;2024-01-10T09:37:38;94939.16;;;-4.50;53.44
8334;BME280;4204;43.004;23.052;2024-01-10T09:40:04;94932.19;;;-4.44;54.25
8334;BME280;4204;43.004;23.052;2024-01-10T09:42:32;94915.47;;;-4.45;52.94
8334;BME280;4204;43.004;23.052;2024-01-10T09:45:00;94912.25;;;-4.33;55.35
8334;BME280;4204;43.004;23.052;2024-01-10T09:47:26;94918.78;;;-4.45;52.11
8334;BME280;4204;43.004;23.052;2024-01-10T09:49:52;94914.50;;;-4.43;54.29
8334;BME280;4204;43.004;23.052;2024-01-10T09:52:25;94912.97;;;-4.31;54.77
8334;BME280;4204;43.004;23.052;2024-01-10T09:54:54;94898.53;;;-4.28;56.23
8334;BME280;4204;43.004;23.052;2024-01-10T09:57:24;94910.56;;;-4.19;54.99
8334;BME280;4204;43.004;23.052;2024-01-10T09:59:51;94905.63;;;-4.20;54.44
8334;BME280;4204;43.004;23.052;2024-01-10T10:02:18;94909.88;;;-4.06;53.75
8334;BME280;4204;43.004;23.052;2024-01-10T10:04:59;94910.31;;;-4.00;54.16
8334;BME280;4204;43.004;23.052;2024-01-10T10:07:27;94902.59;;;-3.97;55.01
8334;BME280;4204;43.004;23.052;2024-01-10T10:09:52;94891.88;;;-4.00;54.53
8334;BME280;4204;43.004;23.052;2024-01-10T10:12:18;94895.66;;;-3.93;54.40
8334;BME280;4204;43.004;23.052;2024-01-10T10:14:44;94898.63;;;-3.87;54.15
8334;BME280;4204;43.004;23.052;2024-01-10T10:17:17;94889.28;;;-3.85;54.46
8334;BME280;4204;43.004;23.052;2024-01-10T10:19:43;94891.25;;;-3.75;54.35
8334;BME280;4204;43.004;23.052;2024-01-10T10:22:10;94884.06;;;-3.67;53.68
8334;BME280;4204;43.004;23.052;2024-01-10T10:24:36;94895.94;;;-3.55;55.65
8334;BME280;4204;43.004;23.052;2024-01-10T10:27:01;94891.25;;;-3.47;53.74
8334;BME280;4204;43.004;23.052;2024-01-10T10:29:27;94889.97;;;-3.40;52.24
8334;BME280;4204;43.004;23.052;2024-01-10T10:31:52;94881.59;;;-3.40;51.12
8334;BME280;4204;43.004;23.052;2024-01-10T10:34:21;94874.38;;;-3.32;51.99
8334;BME280;4204;43.004;23.052;2024-01-10T10:36:48;94869.16;;;-3.29;50.52
8334;BME280;4204;43.004;23.052;2024-01-10T10:39:16;94861.72;;;-3.18;53.05
8334;BME280;4204;43.004;23.052;2024-01-10T10:41:42;94862.13;;;-2.97;52.54
8334;BME280;4204;43.004;23.052;2024-01-10T10:44:09;94857.91;;;-2.97;50.61
8334;BME280;4204;43.004;23.052;2024-01-10T10:46:35;94846.09;;;-2.96;50.82
8334;BME280;4204;43.004;23.052;2024-01-10T10:49:06;94845.19;;;-2.95;50.37
8334;BME280;4204;43.004;23.052;2024-01-10T10:51:36;94839.84;;;-2.91;52.17
8334;BME280;4204;43.004;23.052;2024-01-10T10:54:07;94837.84;;;-2.85;50.88
8334;BME280;4204;43.004;23.052;2024-01-10T10:56:36;94835.31;;;-2.85;51.45
8334;BME280;4204;43.004;23.052;2024-01-10T10:59:04;94833.22;;;-2.79;51.32
8334;BME280;4204;43.004;23.052;2024-01-10T11:01:31;94836.06;;;-2.71;51.40
8334;BME280;4204;43.004;23.052;2024-01-10T11:03:57;94840.72;;;-2.65;50.49
8334;BME280;4204;43.004;23.052;2024-01-10T11:06:24;94832.31;;;-2.65;48.69
8334;BME280;4204;43.004;23.052;2024-01-10T11:08:59;94826.66;;;-2.69;49.97
8334;BME280;4204;43.004;23.052;2024-01-10T11:15:01;94830.72;;;-2.53;48.96
8334;BME280;4204;43.004;23.052;2024-01-10T11:20:30;94817.00;;;-1.99;51.89
8334;BME280;4204;43.004;23.052;2024-01-10T11:26:02;94797.72;;;-1.63;47.28
8334;BME280;4204;43.004;23.052;2024-01-10T11:28:31;94796.94;;;-1.76;48.08
8334;BME280;4204;43.004;23.052;2024-01-10T11:30:56;94788.34;;;-1.74;48.19
8334;BME280;4204;43.004;23.052;2024-01-10T11:33:23;94793.72;;;-1.78;47.63
8334;BME280;4204;43.004;23.052;2024-01-10T11:36:14;94785.31;;;-1.79;47.10
8334;BME280;4204;43.004;23.052;2024-01-10T11:38:54;94777.94;;;-1.82;47.40
8334;BME280;4204;43.004;23.052;2024-01-10T11:41:35;94780.78;;;-1.50;56.00
8334;BME280;4204;43.004;23.052;2024-01-10T11:46:43;94777.16;;;-1.46;45.63
8334;BME280;4204;43.004;23.052;2024-01-10T11:49:09;94775.66;;;-1.48;45.72
8334;BME280;4204;43.004;23.052;2024-01-10T11:51:36;94760.38;;;-1.47;45.54
8334;BME280;4204;43.004;23.052;2024-01-10T11:54:02;94760.97;;;-1.43;47.12
8334;BME280;4204;43.004;23.052;2024-01-10T11:56:40;94762.25;;;-1.38;45.53
8334;BME280;4204;43.004;23.052;2024-01-10T11:59:08;94761.34;;;-1.37;45.40
8334;BME280;4204;43.004;23.052;2024-01-10T12:01:35;94768.22;;;-1.39;46.06
8334;BME280;4204;43.004;23.052;2024-01-10T12:04:02;94768.50;;;-1.31;46.44
8334;BME280;4204;43.004;23.052;2024-01-10T12:06:29;94761.13;;;-1.34;46.69
8334;BME280;4204;43.004;23.052;2024-01-10T12:08:54;94762.50;;;-1.30;47.56
8334;BME280;4204;43.004;23.052;2024-01-10T12:11:20;94754.72;;;-1.26;46.20
8334;BME280;4204;43.004;23.052;2024-01-10T12:13:45;94763.69;;;-1.22;45.38
8334;BME280;4204;43.004;23.052;2024-01-10T12:16:14;94750.94;;;-1.21;45.23
8334;BME280;4204;43.004;23.052;2024-01-10T12:18:40;94757.72;;;-1.21;45.12
8334;BME280;4204;43.004;23.052;2024-01-10T12:21:05;94750.81;;;-1.19;46.17
8334;BME280;4204;43.004;23.052;2024-01-10T12:23:31;94747.38;;;-1.18;45.46
8334;BME280;4204;43.004;23.052;2024-01-10T12:26:08;94751.31;;;-1.14;44.21
8334;BME280;4204;43.004;23.052;2024-01-10T12:28:35;94744.56;;;-1.03;44.62
8334;BME280;4204;43.004;23.052;2024-01-10T12:31:01;94738.69;;;-1.03;44.55
8334;BME280;4204;43.004;23.052;2024-01-10T12:33:27;94746.63;;;-0.97;43.33
8334;BME280;4204;43.004;23.052;2024-01-10T12:36:07;94742.72;;;-1.01;43.58
8334;BME280;4204;43.004;23.052;2024-01-10T12:38:35;94739.28;;;-1.00;44.77
8334;BME280;4204;43.004;23.052;2024-01-10T12:41:00;94741.91;;;-1.01;44.49
8334;BME280;4204;43.004;23.052;2024-01-10T12:43:26;94749.97;;;-0.96;44.44
8334;BME280;4204;43.004;23.052;2024-01-10T12:46:11;94750.78;;;-0.96;46.09
8334;BME280;4204;43.004;23.052;2024-01-10T12:48:41;94751.63;;;-0.84;44.98
8334;BME280;4204;43.004;23.052;2024-01-10T12:51:08;94751.28;;;-0.79;46.16
8334;BME280;4204;43.004;23.052;2024-01-10T12:53:41;94756.00;;;-0.75;45.91
8334;BME280;4204;43.004;23.052;2024-01-10T12:56:07;94752.66;;;-0.75;44.94
8334;BME280;4204;43.004;23.052;2024-01-10T12:58:35;94746.59;;;-0.73;44.50
8334;BME280;4204;43.004;23.052;2024-01-10T13:01:02;94757.19;;;-0.68;45.86
8334;BME280;4204;43.004;23.052;2024-01-10T13:03:31;94743.34;;;-0.75;44.16
8334;BME280;4204;43.004;23.052;2024-01-10T13:05:57;94741.75;;;-0.76;45.27
8334;BME280;4204;43.004;23.052;2024-01-10T13:08:23;94752.84;;;-0.66;45.62
8334;BME280;4204;43.004;23.052;2024-01-10T13:10:49;94746.84;;;-0.65;44.54
8334;BME280;4204;43.004;23.052;2024-01-10T13:13:14;94753.88;;;-0.57;45.54
8334;BME280;4204;43.004;23.052;2024-01-10T13:15:41;94747.31;;;-0.59;45.49
8334;BME280;4204;43.004;23.052;2024-01-10T13:18:07;94749.16;;;-0.50;44.95